Time;durP1;ratioP1;P1;durP2;ratioP2;P2;SDS_P1;SDS_P2;PMS_P1;PMS_P2;Temp;Humidity;BMP_temperature;BMP_pressure;BME280_temperature;BME280_humidity;BME280_pressure;Samples;Min_cycle;Max_cycle;Signal;HPM_P1;HPM_P2
2023/06/03 00:02:13;;;;;;;;;3.00;3.00;;;;;19.48;44.57;64105.19;6183847;23;28852;-93
2023/06/03 00:07:23;;;;;;;;;3.00;2.00;;;;;19.63;44.70;68896.56;6246163;22;27831;-93
2023/06/03 00:09:49;;;;;;;;;1.00;1.00;;;;;19.74;44.89;64013.25;6374492;22;29487;-92
2023/06/03 00:12:19;;;;;;;;;2.00;2.00;;;;;19.39;44.94;64045.31;6403828;22;28016;-92
2023/06/03 00:17:31;;;;;;;;;2.33;2.33;;;;;19.94;44.82;63970.88;6307016;22;28343;-92
2023/06/03 00:19:57;;;;;;;;;3.00;3.00;;;;;19.09;45.30;68684.69;6306351;22;28157;-92
2023/06/03 00:22:27;;;;;;;;;2.00;2.00;;;;;19.09;45.30;64009.84;6306993;22;28052;-91
2023/06/03 00:24:56;;;;;;;;;3.00;3.00;;;;;19.20;45.43;68648.88;6307323;22;28161;-91
2023/06/03 00:27:48;;;;;;;;;2.67;2.67;;;;;18.89;45.55;63979.16;6307425;22;27996;-91
2023/06/03 00:30:16;;;;;;;;;2.33;2.33;;;;;19.79;45.93;64027.41;6189256;23;29758;-91
2023/06/03 00:32:43;;;;;;;;;2.00;2.00;;;;;19.22;45.80;63987.94;6189014;23;28633;-92
2023/06/03 00:35:31;;;;;;;;;3.00;3.00;;;;;19.22;45.80;68623.84;6213894;23;27993;-91
2023/06/03 00:38:08;;;;;;;;;2.00;2.00;;;;;18.80;45.95;63985.13;6214974;23;28027;-91
2023/06/03 00:40:34;;;;;;;;;3.00;3.00;;;;;19.19;46.26;68578.59;6214599;23;30013;-91
2023/06/03 00:42:59;;;;;;;;;3.00;3.00;;;;;19.28;46.26;63958.31;6214209;23;27876;-91
2023/06/03 00:45:24;;;;;;;;;3.33;3.00;;;;;19.51;46.25;63947.13;6215270;23;28088;-90
2023/06/03 00:48:02;;;;;;;;;6.67;3.33;;;;;19.63;46.32;68556.47;6214559;23;27909;-90
2023/06/03 00:50:30;;;;;;;;;4.00;3.00;;;;;19.33;46.60;68444.41;6214782;23;29936;-90
2023/06/03 00:53:13;;;;;;;;;3.00;3.00;;;;;19.42;46.58;63923.72;6213893;23;27992;-91
2023/06/03 00:56:04;;;;;;;;;3.00;3.00;;;;;18.92;46.57;63881.06;6270986;22;29231;-90
2023/06/03 00:58:30;;;;;;;;;3.67;3.00;;;;;18.92;46.57;63881.06;6276274;22;28128;-91
2023/06/03 05:02:55;;;;;;;;;6.00;3.33;;;;;18.34;50.51;66446.44;6334311;22;28165;-91
2023/06/03 05:05:27;;;;;;;;;5.00;5.00;;;;;18.36;50.51;66437.47;6339939;22;28116;-92
2023/06/03 05:07:53;;;;;;;;;3.33;3.33;;;;;18.21;51.05;66327.19;6337673;22;28002;-91
2023/06/03 05:10:18;;;;;;;;;3.00;3.00;;;;;18.20;50.46;66346.88;6337952;22;28298;-91
2023/06/03 05:12:45;;;;;;;;;4.00;4.00;;;;;17.85;50.46;66297.19;6336077;22;28309;-92
2023/06/03 05:15:21;;;;;;;;;;;;;;;;;;;;;
2023/06/03 05:17:57;;;;;;;;;;;;;;;;;;;;;
2023/06/03 05:20:32;;;;;;;;;;;;;;;;;;;;;
2023/06/03 05:23:08;;;;;;;;;;;;;;;;;;;;;
2023/06/03 05:25:44;;;;;;;;;;;;;;;;;;;;;
2023/06/03 05:28:11;;;;;;;;;2.33;2.33;;;;;16.87;50.91;66012.09;6387394;22;55402;-94
2023/06/03 05:30:46;;;;;;;;;;;;;;;;;;;;;
2023/06/03 05:33:30;;;;;;;;;3.00;2.00;;;;;18.22;51.23;66081.69;6388034;22;49292;-94
2023/06/03 05:35:56;;;;;;;;;2.00;2.00;;;;;17.97;51.23;66051.00;6359688;22;28664;-92
2023/06/03 05:38:32;;;;;;;;;;;;;;;;;;;;;
2023/06/03 05:41:08;;;;;;;;;;;;;;;;;;;;;
2023/06/03 05:44:07;;;;;;;;;;;;;;;;;;;;;
2023/06/03 05:46:45;;;;;;;;;;;;;;;;;;;;;
2023/06/03 05:49:21;;;;;;;;;;;;;;;;;;;;;
2023/06/03 05:51:57;;;;;;;;;;;;;;;;;;;;;
2023/06/03 05:54:32;;;;;;;;;;;;;;;;;;;;;
2023/06/03 05:57:14;;;;;;;;;;;;;;;;;;;;;
2023/06/03 05:59:50;;;;;;;;;;;;;;;;;;;;;
2023/06/03 06:02:28;;;;;;;;;;;;;;;;;;;;;
2023/06/03 06:05:07;;;;;;;;;;;;;;;;;;;;;
2023/06/03 06:07:32;;;;;;;;;2.00;2.00;;;;;18.79;50.65;65898.84;6388243;22;58315;-94
2023/06/03 06:10:08;;;;;;;;;;;;;;;;;;;;;
2023/06/03 06:12:43;;;;;;;;;;;;;;;;;;;;;
2023/06/03 06:15:22;;;;;;;;;;;;;;;;;;;;;
2023/06/03 06:17:58;;;;;;;;;;;;;;;;;;;;;
2023/06/03 06:20:34;;;;;;;;;;;;;;;;;;;;;
2023/06/03 06:23:10;;;;;;;;;;;;;;;;;;;;;
2023/06/03 06:25:49;;;;;;;;;;;;;;;;;;;;;
2023/06/03 06:28:31;;;;;;;;;;;;;;;;;;;;;
2023/06/03 06:31:11;;;;;;;;;;;;;;;;;;;;;
2023/06/03 06:33:47;;;;;;;;;;;;;;;;;;;;;
2023/06/03 06:36:34;;;;;;;;;2.00;2.00;;;;;19.16;50.74;65721.34;6386897;22;49229;-95
2023/06/03 06:39:10;;;;;;;;;;;;;;;;;;;;;
2023/06/03 06:41:47;;;;;;;;;;;;;;;;;;;;;
2023/06/03 06:44:31;;;;;;;;;;;;;;;;;;;;;
2023/06/03 06:47:07;;;;;;;;;;;;;;;;;;;;;
2023/06/03 06:49:53;;;;;;;;;;;;;;;;;;;;;
2023/06/03 06:52:29;;;;;;;;;;;;;;;;;;;;;
2023/06/03 06:55:05;;;;;;;;;;;;;;;;;;;;;
2023/06/03 06:57:31;;;;;;;;;2.33;2.33;;;;;18.16;50.53;65618.06;6389668;22;49623;-95
2023/06/03 07:00:07;;;;;;;;;;;;;;;;;;;;;
2023/06/03 07:02:40;;;;;;;;;1.00;1.00;;;;;18.27;50.41;65488.25;6391446;22;56338;-96
2023/06/03 07:05:16;;;;;;;;;;;;;;;;;;;;;
2023/06/03 07:07:49;;;;;;;;;1.33;1.33;;;;;17.96;50.36;65434.97;6390404;22;49711;-92
2023/06/03 07:10:21;;;;;;;;;3.00;1.33;;;;;18.34;50.24;65429.31;6363878;22;30657;-96
2023/06/03 07:12:57;;;;;;;;;;;;;;;;;;;;;
2023/06/03 07:15:23;;;;;;;;;1.00;1.00;;;;;18.11;50.17;65332.19;6389309;22;54797;-92
2023/06/03 07:18:03;;;;;;;;;;;;;;;;;;;;;
2023/06/03 07:20:43;;;;;;;;;;;;;;;;;;;;;
2023/06/03 07:23:26;;;;;;;;;;;;;;;;;;;;;
2023/06/03 07:25:55;;;;;;;;;1.67;1.67;;;;;18.58;50.03;65332.25;6390626;22;53148;-88
2023/06/03 07:28:24;;;;;;;;;1.33;1.33;;;;;19.72;50.27;65455.69;6358015;22;28891;-91
2023/06/03 07:30:52;;;;;;;;;1.67;1.67;;;;;19.31;50.08;65354.16;6358178;22;30054;-88
2023/06/03 07:33:30;;;;;;;;;2.00;2.00;;;;;19.84;50.15;65386.13;6387779;22;28657;-90
2023/06/03 07:36:01;;;;;;;;;2.00;2.00;;;;;18.91;49.91;65302.63;6386686;22;28440;-88
2023/06/03 07:38:38;;;;;;;;;2.00;2.00;;;;;19.93;50.22;65264.91;6387433;22;28475;-89
2023/06/03 07:41:08;;;;;;;;;1.00;1.00;;;;;19.64;50.24;65285.78;6387774;22;28487;-91
2023/06/03 07:43:35;;;;;;;;;1.00;1.00;;;;;19.28;50.06;65182.00;6360725;22;28383;-90
2023/06/03 07:46:08;;;;;;;;;1.67;1.67;;;;;19.18;50.13;65117.75;6388576;22;28357;-91
2023/06/03 07:48:37;;;;;;;;;1.67;1.67;;;;;20.12;50.18;65213.34;6359136;22;28452;-91
2023/06/03 07:51:03;;;;;;;;;3.67;2.00;;;;;20.18;49.73;65165.88;6359745;22;31327;-90
2023/06/03 07:53:30;;;;;;;;;1.67;1.67;;;;;20.14;49.60;65124.41;6359631;22;29419;-91
2023/06/03 07:56:04;;;;;;;;;1.00;1.00;;;;;19.98;49.72;65146.63;6361185;22;28459;-94
2023/06/03 07:58:36;;;;;;;;;1.67;1.33;;;;;20.33;49.64;65166.69;6361929;22;28746;-94
2023/06/03 08:01:16;;;;;;;;;1.67;1.67;;;;;19.35;49.96;64992.22;6363538;22;30012;-95
2023/06/03 08:03:41;;;;;;;;;3.00;2.25;;;;;19.35;49.96;64992.22;6364286;22;29208;-91
2023/06/03 08:06:08;;;;;;;;;5.67;5.67;;;;;20.49;51.70;63705.59;6359357;22;28361;-91
2023/06/03 08:08:33;;;;;;;;;3.00;3.00;;;;;19.51;52.33;62344.34;6388583;22;28373;-92
2023/06/03 08:11:01;;;;;;;;;2.33;2.33;;;;;19.79;52.60;61664.19;6359207;22;29734;-87
2023/06/03 08:13:27;;;;;;;;;2.50;1.75;;;;;20.03;53.27;60839.44;6385858;22;28373;-92
2023/06/03 08:15:52;;;;;;;;;2.00;2.00;;;;;20.03;53.27;60839.44;6359264;22;28504;-91
2023/06/03 08:18:37;;;;;;;;;2.00;2.00;;;;;19.43;53.49;59816.63;6360868;22;28533;-91
2023/06/03 08:21:03;;;;;;;;;1.33;1.33;;;;;19.10;53.54;59422.31;6387700;22;28445;-87
2023/06/03 08:23:28;;;;;;;;;2.00;2.00;;;;;20.14;53.19;59240.50;6386640;22;28404;-87
2023/06/03 08:25:53;;;;;;;;;2.67;2.00;;;;;20.14;53.19;59240.50;6386663;22;28553;-90
2023/06/03 08:28:19;;;;;;;;;1.67;1.67;;;;;20.57;53.33;59007.66;6358922;22;28566;-90
2023/06/03 08:30:44;;;;;;;;;2.00;2.00;;;;;20.67;53.31;58664.06;6358378;22;30055;-89
2023/06/03 08:33:10;;;;;;;;;2.33;2.00;;;;;20.43;53.10;58699.09;6358254;22;29409;-89
2023/06/03 08:35:35;;;;;;;;;4.00;3.00;;;;;20.69;52.95;58478.50;6384671;22;28724;-90
2023/06/03 08:38:02;;;;;;;;;0.33;0.33;;;;;20.91;52.92;57979.69;6357885;22;28433;-88
2023/06/03 08:40:31;;;;;;;;;4.00;2.33;;;;;20.59;52.91;57356.41;6386310;22;28547;-89
2023/06/03 08:43:02;;;;;;;;;2.67;2.67;;;;;20.48;52.80;53259.00;6357215;22;28432;-88
2023/06/03 08:45:53;;;;;;;;;2.00;1.25;;;;;21.49;52.58;52146.56;6387078;22;28433;-87
2023/06/03 08:48:42;;;;;;;;;2.00;2.00;;;;;21.49;52.61;52146.56;6385764;22;28518;-89
2023/06/03 08:51:13;;;;;;;;;2.00;2.00;;;;;22.65;52.61;44417.22;6385988;22;28360;-87
2023/06/03 08:53:51;;;;;;;;;1.25;1.25;;;;;22.65;52.61;44417.22;6385933;22;28491;-88
2023/06/03 08:56:19;;;;;;;;;2.25;2.00;;;;;-97.90;40.64;56001.69;6356486;22;28486;-88
2023/06/03 08:59:07;;;;;;;;;2.00;2.00;;;;;117.12;40.64;50795.00;6357233;22;28395;-88
2023/06/03 09:01:39;;;;;;;;;2.50;2.50;;;;;27.90;48.08;40794.63;6385760;22;29310;-87
2023/06/03 09:04:04;;;;;;;;;3.25;2.00;;;;;-145.03;100.00;62373.16;6357120;22;29778;-87
2023/06/03 09:06:31;;;;;;;;;1.00;1.00;;;;;28.80;44.34;56980.69;6368969;22;45640;-90
2023/06/03 09:08:58;;;;;;;;;3.00;3.00;;;;;29.55;43.53;58183.06;6368104;22;45349;-90
2023/06/03 09:11:25;;;;;;;;;1.67;1.67;;;;;29.72;42.25;60271.69;6367543;22;45379;-88
2023/06/03 09:13:52;;;;;;;;;2.00;2.00;;;;;30.07;41.97;61075.03;6367796;22;45516;-88
2023/06/03 09:16:18;;;;;;;;;2.33;2.33;;;;;-145.03;100.00;62373.16;6343158;22;45419;-87
2023/06/03 09:18:44;;;;;;;;;3.00;1.67;;;;;-145.03;100.00;62373.16;6358276;22;28407;-88
2023/06/03 09:21:12;;;;;;;;;2.00;2.00;;;;;-145.03;100.00;62373.16;6386430;22;29195;-88
2023/06/03 09:23:39;;;;;;;;;1.75;1.75;;;;;-145.03;100.00;62373.16;6358288;22;29631;-88
2023/06/03 09:26:05;;;;;;;;;4.00;1.00;;;;;-145.03;100.00;62373.16;6357793;22;28428;-88
2023/06/03 09:28:33;;;;;;;;;1.00;1.00;;;;;-145.03;100.00;62373.16;6386615;22;28594;-90
2023/06/03 09:30:59;;;;;;;;;1.60;1.60;;;;;-145.03;100.00;62373.16;6331359;22;30616;-88
2023/06/03 09:33:26;;;;;;;;;34.00;28.33;;;;;-145.03;100.00;62373.16;6386082;22;28400;-89
2023/06/03 09:36:15;;;;;;;;;18.67;18.33;;;;;-145.03;100.00;62373.16;6386090;22;28430;-88
2023/06/03 09:38:48;;;;;;;;;5.00;5.00;;;;;-145.03;100.00;62373.16;6385932;22;28616;-89
2023/06/03 09:41:25;;;;;;;;;1.75;1.25;;;;;-145.03;100.00;62373.16;6384630;22;28578;-89
2023/06/03 09:43:54;;;;;;;;;2.25;2.25;;;;;-145.03;100.00;62373.16;6384773;22;28420;-88
2023/06/03 09:46:20;;;;;;;;;2.80;2.80;;;;;-145.03;100.00;62373.16;6385560;22;28495;-88
2023/06/03 09:48:46;;;;;;;;;3.00;2.25;;;;;-145.03;100.00;62373.16;6385394;22;28398;-88
2023/06/03 09:51:11;;;;;;;;;1.75;1.75;;;;;-145.03;100.00;62373.16;6356060;22;29717;-88
2023/06/03 09:53:37;;;;;;;;;3.50;2.50;;;;;-145.03;100.00;62373.16;6383698;22;28355;-89
2023/06/03 09:56:23;;;;;;;;;2.50;1.75;;;;;-145.03;100.00;62373.16;6386297;22;28388;-88
2023/06/03 09:58:51;;;;;;;;;2.00;2.00;;;;;-145.03;100.00;62373.16;6358061;22;28454;-88
2023/06/03 10:01:31;;;;;;;;;1.00;1.00;;;;;-145.03;100.00;62373.16;6357483;22;30609;-89
2023/06/03 10:03:58;;;;;;;;;2.00;2.00;;;;;-145.03;100.00;62373.16;6385744;22;28500;-87
2023/06/03 10:06:23;;;;;;;;;1.75;1.75;;;;;-145.03;100.00;62373.16;6385984;22;28610;-90
2023/06/03 10:08:49;;;;;;;;;1.00;1.00;;;;;-145.03;100.00;62373.16;6385272;22;28567;-88
2023/06/03 10:11:14;;;;;;;;;1.00;1.00;;;;;-145.03;100.00;62373.16;6386694;22;29269;-90
2023/06/03 10:13:40;;;;;;;;;1.75;1.75;;;;;-145.03;100.00;62373.16;6386758;22;28488;-89
2023/06/03 10:16:12;;;;;;;;;12.00;12.00;;;;;-145.03;100.00;62373.16;6385639;22;28744;-89
2023/06/03 10:18:42;;;;;;;;;19.00;17.67;;;;;-145.03;100.00;62373.16;6387054;22;28366;-88
2023/06/03 10:21:11;;;;;;;;;9.00;9.00;;;;;-145.03;100.00;62373.16;6385652;22;29076;-88
2023/06/03 10:23:39;;;;;;;;;3.33;3.33;;;;;-145.03;100.00;62373.16;6358790;22;28359;-90
2023/06/03 10:26:06;;;;;;;;;2.75;2.75;;;;;-145.03;100.00;62373.16;6388136;22;28510;-90
2023/06/03 10:28:32;;;;;;;;;2.00;2.00;;;;;-145.03;100.00;62373.16;6388543;22;28492;-89
2023/06/03 10:31:00;;;;;;;;;1.33;1.33;;;;;-145.03;100.00;62373.16;6387838;22;28534;-90
2023/06/03 10:33:27;;;;;;;;;2.00;2.00;;;;;-145.03;100.00;62373.16;6357583;22;28776;-87
2023/06/03 10:35:56;;;;;;;;;1.00;1.00;;;;;-145.03;100.00;62373.16;6387343;22;28764;-87
2023/06/03 10:38:21;;;;;;;;;0.25;0.25;;;;;-145.03;100.00;62373.16;6388068;22;28579;-87
2023/06/03 10:40:47;;;;;;;;;0.33;0.33;;;;;-145.03;100.00;62373.16;6358768;22;30349;-87
2023/06/03 10:43:13;;;;;;;;;1.33;1.33;;;;;-145.03;100.00;62373.16;6357749;22;28716;-86
2023/06/03 10:45:39;;;;;;;;;1.25;1.25;;;;;-145.03;100.00;62373.16;6387078;22;28395;-86
2023/06/03 10:48:09;;;;;;;;;2.00;2.00;;;;;-145.03;100.00;62373.16;6358687;22;28558;-86
2023/06/03 10:50:54;;;;;;;;;4.00;1.25;;;;;-145.03;100.00;62373.16;6358203;22;29927;-90
2023/06/03 10:53:52;;;;;;;;;1.25;1.25;;;;;-145.03;100.00;62373.16;6387286;22;28377;-91
2023/06/03 10:56:18;;;;;;;;;2.25;2.25;;;;;-145.03;100.00;62373.16;6386377;22;28451;-91
2023/06/03 10:58:49;;;;;;;;;2.00;0.00;;;;;-145.03;100.00;62373.16;6358429;22;28873;-92
2023/06/03 11:01:14;;;;;;;;;3.33;2.00;;;;;-145.03;100.00;62373.16;6357796;22;30084;-92
2023/06/03 11:03:52;;;;;;;;;2.33;2.33;;;;;-145.03;100.00;62373.16;6389371;22;28482;-91
2023/06/03 11:06:23;;;;;;;;;2.00;1.00;;;;;-145.03;100.00;62373.16;6393784;22;28507;-95
2023/06/03 11:09:15;;;;;;;;;2.00;1.67;;;;;-145.03;100.00;62373.16;6395572;22;28519;-92
2023/06/03 11:11:44;;;;;;;;;1.00;1.00;;;;;39.99;22.66;70098.53;6378082;22;46211;-93
2023/06/03 11:14:29;;;;;;;;;1.67;1.67;;;;;39.15;22.90;69998.34;6348688;22;45853;-95
2023/06/03 11:17:03;;;;;;;;;1.00;1.00;;;;;39.95;23.02;70082.09;6347541;22;45377;-96
2023/06/03 11:22:58;;;;;;;;;;;;;;;;;;;;;
2023/06/03 11:25:28;;;;;;;;;2.33;2.33;;;;;38.91;22.96;69951.06;6371590;22;72775;-96
2023/06/03 11:28:35;;;;;;;;;2.00;2.00;;;;;39.51;22.38;69856.59;6370779;22;45560;-96
2023/06/03 11:31:02;;;;;;;;;3.33;2.67;;;;;38.69;22.53;69693.28;6373281;22;45309;-96
2023/06/03 11:33:30;;;;;;;;;0.00;0.00;;;;;38.77;22.71;69837.66;6340987;22;48242;-93
2023/06/03 11:35:55;;;;;;;;;1.00;1.00;;;;;38.96;22.77;69934.91;6343209;22;45381;-95
2023/06/03 11:38:59;;;;;;;;;2.33;2.33;;;;;39.59;22.15;69728.22;6342755;22;45417;-94
2023/06/03 11:42:05;;;;;;;;;3.00;3.00;;;;;39.31;21.80;69618.19;6343469;22;45804;-94
2023/06/03 11:44:31;;;;;;;;;2.33;2.33;;;;;38.68;22.76;69804.88;6352861;22;45512;-96
2023/06/03 11:46:57;;;;;;;;;2.67;2.67;;;;;38.54;22.99;69775.06;6370094;22;45610;-93
2023/06/03 11:49:24;;;;;;;;;2.00;2.00;;;;;38.01;22.72;69769.31;6340908;22;45481;-91
2023/06/03 11:51:56;;;;;;;;;1.67;1.67;;;;;37.74;23.27;69857.19;6367071;22;45365;-91
2023/06/03 11:54:26;;;;;;;;;3.00;1.67;;;;;37.09;23.59;69803.31;6340389;22;48157;-92
2023/06/03 11:56:54;;;;;;;;;2.33;2.33;;;;;-145.03;100.00;62373.16;6357462;22;45729;-92
2023/06/03 11:59:41;;;;;;;;;2.00;2.00;;;;;-145.03;100.00;62373.16;6361972;22;28962;-90
2023/06/03 12:02:07;;;;;;;;;2.00;2.00;;;;;-145.03;100.00;62373.16;6388083;22;28579;-93
2023/06/03 12:04:34;;;;;;;;;3.00;1.33;;;;;-145.03;100.00;62373.16;6361777;22;29808;-93
2023/06/03 12:07:01;;;;;;;;;1.25;1.25;;;;;-145.03;100.00;98266.13;6363360;22;28875;-94
2023/06/03 12:09:33;;;;;;;;;2.50;2.00;;;;;-145.03;100.00;62373.16;6363261;22;28342;-95
2023/06/03 12:12:19;;;;;;;;;2.00;2.00;;;;;-145.03;24.95;50498.53;6366319;22;28363;-95
2023/06/03 12:15:11;;;;;;;;;2.75;2.75;;;;;-145.03;25.67;50382.13;6374310;22;28757;-95
2023/06/03 12:22:39;;;;;;;;;1.25;1.25;;;;;-145.03;100.00;62373.16;6403338;22;28350;-85
2023/06/03 12:25:05;;;;;;;;;1.00;1.00;;;;;-145.03;100.00;62373.16;6404306;22;28027;-84
2023/06/03 12:27:31;;;;;;;;;1.67;1.67;;;;;-145.03;100.00;62373.16;6404945;22;27941;-88
2023/06/03 12:29:59;;;;;;;;;2.00;2.00;;;;;-97.90;100.00;83506.69;6405219;22;27894;-86
2023/06/03 12:32:31;;;;;;;;;0.75;0.75;;;;;-97.90;25.02;141301.72;6405077;22;27928;-88
2023/06/03 12:34:57;;;;;;;;;1.50;1.50;;;;;-145.03;100.00;62373.16;6404195;22;28506;-86
2023/06/03 12:37:30;;;;;;;;;3.33;3.33;;;;;-145.03;0.00;54755.53;6404551;22;28040;-84
2023/06/03 12:39:57;;;;;;;;;2.75;2.75;;;;;37.09;100.00;60610.16;6391985;22;28005;-95
2023/06/03 12:42:42;;;;;;;;;1.50;1.50;;;;;-97.90;25.67;67510.28;6364757;22;28328;-95
2023/06/03 12:45:09;;;;;;;;;2.00;2.00;;;;;-145.03;25.67;50382.13;6363955;22;29782;-95
2023/06/03 12:47:44;;;;;;;;;1.75;1.50;;;;;-145.03;24.95;117160.00;6365539;22;28586;-95
2023/06/03 12:50:10;;;;;;;;;1.75;1.75;;;;;-97.90;25.67;67510.28;6367644;22;28304;-89
2023/06/03 12:52:37;;;;;;;;;2.67;2.67;;;;;;;;6389812;22;28247;-93
2023/06/03 12:55:17;;;;;;;;;2.00;1.00;;;;;-97.90;25.67;67510.28;6362996;22;29765;-94
2023/06/03 12:57:48;;;;;;;;;1.00;1.00;;;;;-97.90;25.02;67510.28;6363137;22;28563;-93
2023/06/03 13:00:21;;;;;;;;;2.00;2.00;;;;;-97.90;25.67;67510.28;6362586;22;28352;-93
2023/06/03 13:02:58;;;;;;;;;3.00;1.50;;;;;-97.90;25.67;67510.28;6361780;22;27824;-91
2023/06/03 13:05:26;;;;;;;;;2.50;1.75;;;;;-97.90;25.67;67510.28;6360687;22;29962;-93
2023/06/03 13:07:52;;;;;;;;;1.00;1.00;;;;;-145.03;70.67;62373.44;6361085;22;28453;-94
2023/06/03 13:10:17;;;;;;;;;1.00;1.00;;;;;-144.32;100.00;50615.00;6362089;22;28351;-93
2023/06/03 13:12:46;;;;;;;;;1.33;1.33;;;;;-97.90;25.67;67510.28;6362186;22;28290;-95
2023/06/03 13:15:12;;;;;;;;;3.25;1.75;;;;;-97.90;25.67;67510.28;6362200;22;31032;-94
2023/06/03 13:18:18;;;;;;;;;1.33;1.33;;;;;-142.41;25.67;50418.47;6361644;22;28806;-96
2023/06/03 13:20:46;;;;;;;;;1.50;1.50;;;;;-97.90;24.84;68586.97;6362096;22;28411;-93
2023/06/03 13:23:12;;;;;;;;;2.00;2.00;;;;;-97.90;24.84;68586.97;6361632;22;28419;-94
2023/06/03 13:26:24;;;;;;;;;3.00;3.00;;;;;-19.30;24.84;51455.03;6361174;22;29933;-92
2023/06/03 13:29:00;;;;;;;;;1.00;1.00;;;;;-145.03;24.71;69777.88;6230697;22;28812;-95
2023/06/03 13:31:28;;;;;;;;;1.50;1.50;;;;;-97.90;23.81;68586.97;6199655;23;28375;-93
2023/06/03 13:33:54;;;;;;;;;1.00;1.00;;;;;-97.90;23.81;68586.97;6201025;23;28340;-96
2023/06/03 13:36:19;;;;;;;;;1.33;1.33;;;;;-97.90;23.81;68586.97;6201499;23;28434;-94
2023/06/03 13:38:49;;;;;;;;;1.33;1.33;;;;;6.92;23.81;51455.03;6200609;23;28365;-96
2023/06/03 13:41:30;;;;;;;;;1.25;1.25;;;;;29.80;100.00;62155.78;6197845;23;28470;-96
2023/06/03 13:43:58;;;;;;;;;2.00;2.00;;;;;-97.90;27.81;68743.94;6169704;23;28366;-96
2023/06/03 13:46:23;;;;;;;;;1.50;1.50;;;;;-97.90;24.71;68586.97;6170082;23;30444;-95
2023/06/03 13:48:49;;;;;;;;;2.33;1.00;;;;;38.39;24.71;71338.59;6174818;23;28772;-96
2023/06/03 13:51:14;;;;;;;;;1.00;1.00;;;;;-97.90;24.71;68586.97;6177770;23;28630;-94
2023/06/03 13:53:39;;;;;;;;;1.33;1.33;;;;;-97.90;100.00;62373.16;6172886;23;28466;-96
2023/06/03 13:56:08;;;;;;;;;1.00;1.00;;;;;38.39;27.81;71547.47;6171146;23;30703;-96
2023/06/03 13:58:37;;;;;;;;;1.25;1.25;;;;;28.62;27.81;62384.78;6172282;23;28543;-96
2023/06/03 14:01:03;;;;;;;;;1.25;1.25;;;;;122.37;26.90;82017.78;6145587;23;27726;-96
2023/06/03 14:03:28;;;;;;;;;1.00;1.00;;;;;122.37;26.90;82017.78;6199493;23;28883;-95
2023/06/03 14:05:53;;;;;;;;;2.67;1.67;;;;;-97.90;26.90;68586.97;6268367;22;29708;-93
2023/06/03 14:08:22;;;;;;;;;0.67;0.67;;;;;-97.90;28.22;68849.88;6368554;22;28600;-93
2023/06/03 14:10:47;;;;;;;;;1.00;1.00;;;;;-97.90;26.90;68586.97;6360097;22;28381;-95
2023/06/03 14:13:13;;;;;;;;;1.00;1.00;;;;;-97.90;26.90;68586.97;6360697;22;28552;-95
2023/06/03 14:16:24;;;;;;;;;4.00;2.00;;;;;-97.90;26.90;68586.97;6360964;22;30568;-95
2023/06/03 14:18:52;;;;;;;;;1.00;1.00;;;;;-97.90;26.90;68586.97;6361304;22;28715;-94
2023/06/03 14:21:18;;;;;;;;;1.00;1.00;;;;;-97.90;23.27;68586.97;6360451;22;28332;-95
2023/06/03 14:23:47;;;;;;;;;2.00;2.00;;;;;-97.90;26.90;68586.97;6361717;22;28638;-95
2023/06/03 14:26:17;;;;;;;;;2.00;2.00;;;;;-97.90;26.90;68586.97;6360247;22;29923;-96
2023/06/03 14:28:43;;;;;;;;;1.00;1.00;;;;;-97.90;28.22;68792.00;6362626;22;29340;-94
2023/06/03 14:31:48;;;;;;;;;1.67;1.00;;;;;122.37;23.27;82017.78;6359436;22;28333;-95
2023/06/03 14:34:13;;;;;;;;;1.00;1.00;;;;;29.34;29.38;62406.22;6235120;22;28534;-94
2023/06/03 14:43:10;;;;;;;;;1.50;0.50;;;;;-111.00;30.07;51688.25;6281866;22;28822;-93
2023/06/03 14:45:36;;;;;;;;;1.00;1.00;;;;;43.64;29.66;56989.19;6404704;22;27947;-91
2023/06/03 14:48:01;;;;;;;;;1.33;1.33;;;;;-97.90;30.35;68586.97;6376468;22;39302;-91
2023/06/03 14:50:27;;;;;;;;;1.00;1.00;;;;;156.50;22.89;51455.72;6404260;22;27933;-90
2023/06/03 14:52:52;;;;;;;;;1.33;1.33;;;;;-97.90;29.92;68586.97;6404517;22;27936;-92
2023/06/03 14:55:18;;;;;;;;;2.00;1.00;;;;;-97.90;29.92;68586.97;6376987;22;27942;-90
2023/06/03 14:57:43;;;;;;;;;1.00;1.00;;;;;-97.90;29.92;68586.97;6376256;22;29716;-93
2023/06/03 15:00:09;;;;;;;;;1.33;1.33;;;;;-97.90;28.72;68837.81;6405617;22;27933;-91
2023/06/03 15:02:34;;;;;;;;;1.00;1.00;;;;;-97.90;29.92;68586.97;6405537;22;27948;-91
2023/06/03 15:05:00;;;;;;;;;1.00;1.00;;;;;-97.90;29.92;68586.97;6405235;22;27887;-94
2023/06/03 15:07:25;;;;;;;;;2.00;2.00;;;;;-97.90;28.72;68837.81;6405839;22;31903;-92
2023/06/03 15:09:50;;;;;;;;;1.67;1.67;;;;;146.00;28.72;53111.44;6404507;22;33864;-89
2023/06/03 15:12:16;;;;;;;;;1.00;1.00;;;;;-97.90;30.05;68900.53;6405561;22;27880;-90
2023/06/03 15:14:41;;;;;;;;;1.00;1.00;;;;;28.77;30.05;62773.47;6405648;22;27906;-87
2023/06/03 15:17:08;;;;;;;;;1.67;1.67;;;;;28.77;30.05;62773.47;6404958;22;28047;-89
2023/06/03 15:19:33;;;;;;;;;1.00;1.00;;;;;-97.90;30.05;68970.66;6404992;22;28035;-88
2023/06/03 15:21:59;;;;;;;;;3.00;3.00;;;;;-97.90;30.63;68586.97;6405523;22;27862;-87
2023/06/03 15:24:24;;;;;;;;;1.00;1.00;;;;;-97.90;30.65;68586.97;6405522;22;27675;-87
2023/06/03 15:26:50;;;;;;;;;2.33;1.33;;;;;-97.90;30.63;68586.97;6405002;22;28439;-90
2023/06/03 15:29:15;;;;;;;;;0.00;0.00;;;;;48.88;28.72;51743.03;6405351;22;27898;-87
2023/06/03 15:31:40;;;;;;;;;2.00;1.00;;;;;28.66;28.72;51743.03;6404312;22;27877;-88
2023/06/03 15:34:06;;;;;;;;;2.00;2.00;;;;;28.42;28.71;62744.84;6404975;22;27986;-88
2023/06/03 15:36:31;;;;;;;;;0.67;0.67;;;;;28.48;30.27;62793.06;6404130;22;35973;-86
2023/06/03 15:38:57;;;;;;;;;2.00;1.00;;;;;28.48;30.99;62425.69;6376860;22;28117;-87
2023/06/03 15:41:25;;;;;;;;;1.00;1.00;;;;;28.29;30.07;51744.91;6405162;22;27987;-87
2023/06/03 15:43:53;;;;;;;;;3.00;3.00;;;;;28.30;30.07;62406.22;6404142;22;28035;-91
2023/06/03 15:46:19;;;;;;;;;2.33;2.33;;;;;28.32;30.06;62773.47;6403800;22;28141;-91
2023/06/03 15:48:44;;;;;;;;;2.33;1.00;;;;;-69.08;28.71;86156.13;6403745;22;28036;-90
2023/06/03 15:51:10;;;;;;;;;1.00;1.00;;;;;28.14;31.01;51455.72;6405101;22;27987;-90
2023/06/03 15:53:35;;;;;;;;;1.00;1.00;;;;;28.15;30.07;51739.06;6405315;22;28121;-89
2023/06/03 15:56:00;;;;;;;;;0.00;0.00;;;;;28.07;28.75;62832.53;6404575;22;29018;-89
2023/06/03 15:58:26;;;;;;;;;0.00;0.00;;;;;27.92;30.08;62814.53;6404436;22;27997;-88
2023/06/03 16:00:51;;;;;;;;;2.00;2.00;;;;;27.93;28.74;62732.88;6402796;22;32839;-85
2023/06/03 16:03:16;;;;;;;;;2.33;2.00;;;;;27.93;28.74;62732.88;6404402;22;27993;-84
2023/06/03 16:05:42;;;;;;;;;2.00;1.00;;;;;27.93;30.10;62732.88;6403794;22;27950;-85
2023/06/03 16:08:07;;;;;;;;;1.00;1.00;;;;;185.40;30.30;51747.16;6403202;22;27975;-85
2023/06/03 16:10:33;;;;;;;;;1.00;0.33;;;;;27.96;30.08;62783.81;6404023;22;27988;-89
2023/06/03 16:12:58;;;;;;;;;2.00;2.00;;;;;156.51;30.27;55756.28;6404331;22;28264;-87
2023/06/03 16:15:23;;;;;;;;;0.33;0.33;;;;;27.90;30.32;84424.31;6404005;22;28448;-86
2023/06/03 16:17:49;;;;;;;;;1.00;1.00;;;;;-97.90;22.63;96166.28;6403592;22;28011;-85
2023/06/03 16:20:15;;;;;;;;;0.33;0.33;;;;;27.90;30.39;86162.81;6404644;22;28283;-86
2023/06/03 16:22:42;;;;;;;;;1.00;1.00;;;;;27.90;30.55;84351.69;6404814;22;27948;-86
2023/06/03 16:25:08;;;;;;;;;1.00;0.00;;;;;27.90;30.55;85204.34;6403676;22;29322;-87
2023/06/03 16:27:33;;;;;;;;;1.00;1.00;;;;;27.90;30.56;82492.75;6403536;22;27892;-87
2023/06/03 16:29:59;;;;;;;;;0.67;0.67;;;;;27.90;30.46;80133.38;6404297;22;28038;-90
2023/06/03 16:32:24;;;;;;;;;1.00;1.00;;;;;27.90;31.36;79763.84;6403849;22;27811;-86
2023/06/03 16:34:50;;;;;;;;;1.00;1.00;;;;;27.90;31.36;79763.84;6403988;22;28973;-85
2023/06/03 16:37:15;;;;;;;;;1.33;1.33;;;;;27.90;30.46;80133.38;6404280;22;27823;-86
2023/06/03 16:39:40;;;;;;;;;1.67;1.67;;;;;27.90;30.46;80133.38;6403524;22;28111;-86
2023/06/03 16:42:06;;;;;;;;;1.00;1.00;;;;;27.90;30.75;71846.03;6376697;22;28329;-86
2023/06/03 16:44:31;;;;;;;;;1.00;1.00;;;;;-97.90;31.65;68586.97;6403623;22;28137;-85
2023/06/03 16:46:56;;;;;;;;;1.00;1.00;;;;;27.90;30.81;74611.38;6403033;22;27957;-87
2023/06/03 16:49:22;;;;;;;;;0.00;0.00;;;;;27.90;30.73;71912.66;6404522;22;27952;-87
2023/06/03 16:51:48;;;;;;;;;0.00;0.00;;;;;27.37;30.86;51801.78;6404894;22;28113;-89
2023/06/03 16:54:13;;;;;;;;;1.00;0.00;;;;;27.90;30.88;69952.47;6376435;22;29519;-88
2023/06/03 16:56:39;;;;;;;;;1.00;1.00;;;;;27.90;30.89;70691.41;6403761;22;27955;-88
2023/06/03 16:59:06;;;;;;;;;0.00;0.00;;;;;27.29;30.90;69851.59;6404877;22;28242;-85
2023/06/03 17:01:31;;;;;;;;;1.00;1.00;;;;;27.90;31.08;69976.94;6404363;22;28055;-88